Time;durP1;ratioP1;P1;durP2;ratioP2;P2;SDS_P1;SDS_P2;PMS_P1;PMS_P2;Temp;Humidity;BMP_temperature;BMP_pressure;BME280_temperature;BME280_humidity;BME280_pressure;Samples;Min_cycle;Max_cycle;Signal;HPM_P1;HPM_P2
2022/05/15 00:01:49;;;;;;;0.43;0.43;;;;;;;8.25;100.00;101250.19;5043483;28;20199;-70
2022/05/15 00:04:17;;;;;;;0.83;0.83;;;;;;;8.40;100.00;101257.88;5041294;28;20204;-70
2022/05/15 00:06:44;;;;;;;1.20;0.40;;;;;;;8.13;100.00;101248.53;5042995;28;20224;-70
2022/05/15 00:09:10;;;;;;;0.77;0.70;;;;;;;8.10;100.00;101262.41;5040283;28;20219;-69
2022/05/15 00:11:36;;;;;;;0.50;0.50;;;;;;;8.06;100.00;101257.25;5037302;28;20203;-69
2022/05/15 00:14:03;;;;;;;0.70;0.70;;;;;;;8.15;100.00;101254.59;5037973;28;20206;-70
2022/05/15 00:16:31;;;;;;;0.70;0.70;;;;;;;8.12;100.00;101259.78;5035100;28;20258;-70
2022/05/15 00:19:09;;;;;;;0.33;0.33;;;;;;;8.11;100.00;101260.69;5039029;28;20213;-69
2022/05/15 00:21:49;;;;;;;1.20;1.10;;;;;;;7.95;100.00;101259.91;5045564;28;20202;-69
2022/05/15 00:24:26;;;;;;;1.40;1.17;;;;;;;8.20;100.00;101264.97;5039905;28;20244;-70
2022/05/15 00:26:57;;;;;;;0.30;0.30;;;;;;;8.13;100.00;101267.56;5040356;28;20224;-70
2022/05/15 00:29:31;;;;;;;3.93;0.60;;;;;;;8.15;100.00;101263.22;5045060;28;20211;-70
2022/05/15 00:32:06;;;;;;;1.77;0.60;;;;;;;7.93;100.00;101264.22;5045827;28;20205;-70
2022/05/15 00:34:43;;;;;;;0.37;0.37;;;;;;;7.94;100.00;101271.16;5033041;28;20212;-70
2022/05/15 00:37:11;;;;;;;0.80;0.80;;;;;;;8.07;100.00;101266.75;5044130;28;20225;-70
2022/05/15 00:39:43;;;;;;;0.80;0.80;;;;;;;7.93;100.00;101265.09;5047067;28;20219;-70
2022/05/15 00:42:13;;;;;;;0.60;0.60;;;;;;;7.94;100.00;101263.34;5036490;28;20261;-70
2022/05/15 00:44:43;;;;;;;0.73;0.60;;;;;;;7.81;100.00;101265.16;5033589;28;20317;-70
2022/05/15 00:50:00;;;;;;;1.00;0.57;;;;;;;7.97;100.00;101264.19;5037912;28;20641;-70
2022/05/15 00:52:41;;;;;;;0.47;0.47;;;;;;;7.86;100.00;101267.72;5040251;28;20195;-69
2022/05/15 00:55:13;;;;;;;0.67;0.67;;;;;;;7.72;100.00;101262.56;5034555;28;20258;-69
2022/05/15 00:57:44;;;;;;;1.83;0.90;;;;;;;7.90;100.00;101264.25;5039312;28;20735;-70
2022/05/15 01:00:13;;;;;;;0.73;0.53;;;;;;;7.92;100.00;101265.97;5030441;28;20743;-69
2022/05/15 01:02:43;;;;;;;0.77;0.77;;;;;;;7.78;100.00;101268.63;5033923;28;20583;-70
2022/05/15 01:05:11;;;;;;;0.50;0.50;;;;;;;7.74;100.00;101277.28;5031873;28;20208;-70
2022/05/15 01:07:39;;;;;;;0.70;0.70;;;;;;;7.74;100.00;101271.25;5027617;28;20219;-71
2022/05/15 01:10:09;;;;;;;0.70;0.70;;;;;;;7.73;100.00;101270.38;5034757;28;20228;-69
2022/05/15 01:12:40;;;;;;;0.77;0.77;;;;;;;7.65;100.00;101274.75;5033781;28;20755;-69
2022/05/15 01:15:10;;;;;;;1.27;0.90;;;;;;;7.65;100.00;101274.75;5038975;28;20309;-69
2022/05/15 01:17:37;;;;;;;0.93;0.77;;;;;;;7.56;100.00;101278.22;5032951;28;20679;-69
2022/05/15 01:20:06;;;;;;;1.07;0.70;;;;;;;7.46;100.00;101283.44;5039702;28;20219;-69
2022/05/15 01:22:34;;;;;;;0.33;0.33;;;;;;;7.40;100.00;101284.31;5044284;28;20210;-71
2022/05/15 01:25:01;;;;;;;0.47;0.47;;;;;;;7.39;100.00;101275.69;5041918;28;20202;-70
2022/05/15 01:27:28;;;;;;;0.60;0.60;;;;;;;7.42;100.00;101273.94;5034921;28;20204;-69
2022/05/15 01:29:55;;;;;;;0.70;0.70;;;;;;;7.40;100.00;101273.94;5036749;28;20239;-71
2022/05/15 01:32:22;;;;;;;0.50;0.50;;;;;;;7.34;100.00;101272.22;5035506;28;20222;-69
2022/05/15 01:34:53;;;;;;;0.60;0.60;;;;;;;7.16;100.00;101277.47;5037251;28;20210;-69
2022/05/15 01:37:20;;;;;;;0.77;0.60;;;;;;;7.14;100.00;101274.88;5035933;28;20290;-69
2022/05/15 01:39:58;;;;;;;0.60;0.60;;;;;;;7.10;100.00;101278.31;5035977;28;20334;-70
2022/05/15 01:42:28;;;;;;;0.27;0.27;;;;;;;7.10;100.00;101277.47;5031503;28;20212;-72
2022/05/15 01:44:57;;;;;;;0.60;0.60;;;;;;;7.20;100.00;101276.59;5039046;28;20195;-69
2022/05/15 01:47:30;;;;;;;0.57;0.57;;;;;;;7.15;100.00;101276.59;5027291;28;20355;-70
2022/05/15 01:50:03;;;;;;;0.70;0.70;;;;;;;6.97;100.00;101280.06;5036105;28;20286;-70
2022/05/15 01:52:36;;;;;;;0.57;0.50;;;;;;;7.08;100.00;101280.06;5031228;28;20226;-69
2022/05/15 01:55:09;;;;;;;0.87;0.83;;;;;;;6.89;100.00;101279.19;5036289;28;20227;-70
2022/05/15 01:57:59;;;;;;;0.93;0.93;;;;;;;7.03;100.00;101279.19;5041069;28;20242;-70
2022/05/15 02:00:29;;;;;;;0.70;0.70;;;;;;;6.93;100.00;101277.47;5038743;28;20242;-71
2022/05/15 02:02:59;;;;;;;0.77;0.73;;;;;;;6.87;100.00;101288.72;5026429;28;20196;-70
2022/05/15 02:05:32;;;;;;;0.63;0.63;;;;;;;7.04;100.00;101280.06;5032459;28;20208;-69
2022/05/15 02:08:07;;;;;;;0.47;0.47;;;;;;;6.98;100.00;101287.00;5040506;28;20623;-70
2022/05/15 02:10:36;;;;;;;0.47;0.47;;;;;;;6.99;100.00;101283.53;5025048;28;20230;-71
2022/05/15 02:13:16;;;;;;;0.10;0.10;;;;;;;6.94;100.00;101286.97;5037262;28;20203;-69
2022/05/15 02:15:52;;;;;;;0.47;0.47;;;;;;;6.65;100.00;101293.03;5042317;28;20539;-69
2022/05/15 02:18:23;;;;;;;0.60;0.60;;;;;;;6.62;100.00;101285.25;5041900;28;20539;-69
2022/05/15 02:20:55;;;;;;;0.47;0.47;;;;;;;6.62;100.00;101293.03;5033445;28;20226;-70
2022/05/15 02:23:36;;;;;;;0.63;0.63;;;;;;;6.67;100.00;101291.31;5035868;28;20205;-69
2022/05/15 02:26:23;;;;;;;0.40;0.40;;;;;;;6.71;100.00;101294.75;5041604;28;20286;-69
2022/05/15 02:28:56;;;;;;;0.70;0.43;;;;;;;6.52;100.00;101292.13;5037569;28;20585;-70
2022/05/15 02:31:31;;;;;;;0.70;0.37;;;;;;;6.44;100.00;101293.88;5041055;28;20583;-70
2022/05/15 02:34:02;;;;;;;0.57;0.30;;;;;;;6.43;100.00;101294.72;5041061;28;20206;-70
2022/05/15 02:36:33;;;;;;;3.70;0.30;;;;;;;6.49;100.00;101293.88;5044351;28;20661;-70
2022/05/15 02:39:07;;;;;;;0.47;0.40;;;;;;;6.64;100.00;101296.47;5038483;28;20220;-70
2022/05/15 02:41:37;;;;;;;1.03;1.03;;;;;;;6.52;100.00;101292.13;5040311;28;20395;-69
2022/05/15 02:44:12;;;;;;;0.27;0.27;;;;;;;6.56;100.00;101290.41;5037551;28;20281;-70
2022/05/15 02:46:44;;;;;;;0.70;0.70;;;;;;;6.55;100.00;101294.75;5037752;28;20211;-69
2022/05/15 02:52:04;;;;;;;0.80;0.60;;;;;;;6.78;100.00;101296.50;5045314;28;20205;-69
2022/05/15 02:54:36;;;;;;;0.40;0.40;;;;;;;6.76;100.00;101295.63;5044551;28;20237;-70
2022/05/15 02:57:19;;;;;;;0.40;0.40;;;;;;;6.57;100.00;101294.75;5042098;28;20210;-70
2022/05/15 02:59:51;;;;;;;1.57;1.47;;;;;;;6.38;100.00;101299.03;5039032;28;20273;-71
2022/05/15 03:02:26;;;;;;;0.30;0.30;;;;;;;6.59;100.00;101300.78;5038947;28;20246;-69
2022/05/15 03:05:05;;;;;;;0.80;0.70;;;;;;;6.62;100.00;101304.25;5032041;28;20210;-70
2022/05/15 03:10:48;;;;;;;0.40;0.40;;;;;;;6.36;100.00;101309.38;5045129;28;20223;-70
2022/05/15 03:13:33;;;;;;;0.50;0.50;;;;;;;6.33;100.00;101304.22;5040801;28;20242;-70
2022/05/15 03:16:17;;;;;;;0.70;0.70;;;;;;;6.47;100.00;101306.81;5043132;28;20195;-69
2022/05/15 03:18:56;;;;;;;0.70;0.70;;;;;;;6.57;100.00;101307.72;5038242;28;20214;-69
2022/05/15 03:21:32;;;;;;;0.77;0.77;;;;;;;6.57;100.00;101311.16;5031964;28;20378;-70
2022/05/15 03:24:09;;;;;;;0.63;0.63;;;;;;;6.51;100.00;101316.34;5028083;28;20963;-70
2022/05/15 03:26:51;;;;;;;0.10;0.10;;;;;;;6.63;100.00;101308.59;5041960;28;20196;-68
2022/05/15 03:29:27;;;;;;;0.30;0.30;;;;;;;6.64;100.00;101317.22;5036283;28;20234;-71
2022/05/15 03:31:59;;;;;;;0.70;0.50;;;;;;;6.57;100.00;101320.66;5040978;28;20200;-70
2022/05/15 03:34:30;;;;;;;0.93;0.93;;;;;;;6.63;100.00;101318.06;5037979;28;20314;-70
2022/05/15 03:37:03;;;;;;;0.50;0.50;;;;;;;6.63;100.00;101323.25;5044268;28;20591;-69
2022/05/15 03:39:44;;;;;;;0.27;0.27;;;;;;;6.57;100.00;101323.25;5033413;28;20254;-70
2022/05/15 03:42:11;;;;;;;0.53;0.53;;;;;;;6.56;100.00;101326.69;5037746;28;20203;-69
2022/05/15 03:44:46;;;;;;;0.50;0.50;;;;;;;6.65;100.00;101321.53;5029995;28;20520;-69
2022/05/15 03:47:38;;;;;;;0.77;0.60;;;;;;;6.61;100.00;101318.09;5043992;28;20673;-71
2022/05/15 03:50:17;;;;;;;0.47;0.47;;;;;;;6.70;100.00;101327.59;5033170;28;20238;-69
2022/05/15 03:52:48;;;;;;;0.50;0.40;;;;;;;6.71;100.00;101331.06;5046319;28;20249;-71
2022/05/15 03:55:25;;;;;;;0.40;0.40;;;;;;;6.91;100.00;101339.72;5043226;28;20202;-71
2022/05/15 03:58:01;;;;;;;0.73;0.73;;;;;;;6.87;100.00;101330.19;5047182;28;20246;-69
2022/05/15 04:00:44;;;;;;;0.87;0.70;;;;;;;6.94;100.00;101334.50;5037215;28;20583;-72
2022/05/15 04:03:43;;;;;;;0.73;0.73;;;;;;;6.93;100.00;101337.09;5032199;28;20216;-69
2022/05/15 04:06:34;;;;;;;0.57;0.57;;;;;;;7.06;100.00;101327.59;5039800;28;20196;-72
2022/05/15 04:09:02;;;;;;;0.80;0.70;;;;;;;7.11;100.00;101346.63;5039987;28;20323;-71
2022/05/15 04:11:39;;;;;;;1.50;0.53;;;;;;;7.22;100.00;101344.88;5039631;28;20670;-69
2022/05/15 04:14:16;;;;;;;0.70;0.70;;;;;;;7.27;100.00;101340.56;5038969;28;20204;-70
2022/05/15 04:16:47;;;;;;;0.70;0.70;;;;;;;7.29;100.00;101344.00;5056427;28;20187;-69
2022/05/15 04:19:14;;;;;;;0.57;0.57;;;;;;;7.37;100.00;101347.47;5059669;28;20247;-70
2022/05/15 04:21:41;;;;;;;0.40;0.40;;;;;;;7.61;100.00;101356.06;5056977;28;20215;-70
2022/05/15 04:24:09;;;;;;;0.43;0.43;;;;;;;7.68;100.00;101338.75;5053783;28;20200;-70
2022/05/15 04:26:38;;;;;;;0.60;0.60;;;;;;;7.72;100.00;101345.66;5059056;28;20230;-69
2022/05/15 04:29:06;;;;;;;1.70;1.20;;;;;;;7.90;100.00;101347.34;5065112;28;20215;-70
2022/05/15 04:31:33;;;;;;;0.40;0.40;;;;;;;8.04;100.00;101358.53;5054180;28;20203;-70
2022/05/15 04:34:02;;;;;;;0.50;0.50;;;;;;;8.06;100.00;101362.00;5057594;28;20192;-70
2022/05/15 04:36:29;;;;;;;0.40;0.40;;;;;;;8.09;100.00;101359.38;5063634;28;20192;-71
2022/05/15 04:38:57;;;;;;;0.57;0.57;;;;;;;8.28;100.00;101351.50;5057569;28;20602;-69
2022/05/15 04:41:23;;;;;;;0.70;0.47;;;;;;;8.58;100.00;101360.03;5055868;28;20552;-69
2022/05/15 04:43:51;;;;;;;1.07;0.97;;;;;;;8.59;100.00;101366.97;5060580;28;20688;-69
2022/05/15 04:46:18;;;;;;;0.87;0.87;;;;;;;8.80;100.00;101366.81;5052998;28;20653;-71
2022/05/15 04:48:44;;;;;;;0.93;0.93;;;;;;;8.98;100.00;101370.16;5064513;28;20621;-69
2022/05/15 04:51:12;;;;;;;0.20;0.20;;;;;;;9.13;100.00;101375.25;5056730;28;20214;-68
2022/05/15 04:53:39;;;;;;;0.50;0.50;;;;;;;9.29;100.00;101370.78;5060822;28;20715;-70
2022/05/15 04:56:06;;;;;;;0.73;0.73;;;;;;;9.41;100.00;101378.47;5063648;28;20724;-71
2022/05/15 04:58:32;;;;;;;0.67;0.67;;;;;;;9.33;100.00;101384.63;5058654;28;20297;-70
2022/05/15 05:00:59;;;;;;;0.60;0.60;;;;;;;9.38;100.00;101385.44;5050185;28;20279;-70
2022/05/15 05:03:25;;;;;;;0.63;0.63;;;;;;;9.52;100.00;101383.56;5046377;28;20218;-70
2022/05/15 05:05:52;;;;;;;0.60;0.60;;;;;;;9.65;100.00;101392.09;5049978;28;20199;-70
2022/05/15 05:08:20;;;;;;;0.57;0.57;;;;;;;9.83;100.00;101385.84;5055411;28;20325;-69
2022/05/15 05:10:47;;;;;;;0.40;0.40;;;;;;;9.97;100.00;101390.91;5052700;28;20714;-71
2022/05/15 05:13:14;;;;;;;0.83;0.60;;;;;;;10.09;100.00;101398.56;5052565;28;20260;-71
2022/05/15 05:15:40;;;;;;;0.33;0.33;;;;;;;10.04;100.00;101398.66;5053683;28;20230;-71
2022/05/15 05:18:07;;;;;;;0.90;0.90;;;;;;;10.14;100.00;101395.94;5051110;28;20196;-71
2022/05/15 05:20:34;;;;;;;0.87;0.70;;;;;;;10.21;100.00;101401.03;5047674;28;20219;-71
2022/05/15 05:23:00;;;;;;;0.63;0.63;;;;;;;10.27;100.00;101392.28;5051279;28;20643;-70
2022/05/15 05:25:28;;;;;;;0.40;0.40;;;;;;;10.35;100.00;101402.66;5056219;28;20210;-71
2022/05/15 05:27:55;;;;;;;0.57;0.57;;;;;;;10.45;100.00;101404.25;5053152;28;20219;-70
2022/05/15 05:30:25;;;;;;;0.47;0.47;;;;;;;10.59;100.00;101396.25;5037924;28;20287;-71
2022/05/15 05:32:52;;;;;;;0.70;0.70;;;;;;;10.69;100.00;101408.25;5052429;28;20207;-70
2022/05/15 05:35:20;;;;;;;0.53;0.53;;;;;;;10.74;100.00;101413.41;5051177;28;20673;-71
2022/05/15 05:37:47;;;;;;;0.40;0.40;;;;;;;10.84;99.46;101425.44;5048391;28;20213;-71
2022/05/15 05:40:14;;;;;;;0.57;0.57;;;;;;;10.96;95.81;101430.50;5051848;28;20691;-70
2022/05/15 05:42:42;;;;;;;0.83;0.50;;;;;;;11.09;94.62;101423.31;5041835;28;20214;-71
2022/05/15 05:45:09;;;;;;;0.23;0.23;;;;;;;11.22;96.03;101424.00;5048286;28;20193;-71
2022/05/15 05:47:36;;;;;;;0.20;0.20;;;;;;;11.37;93.81;101430.72;5050288;28;20321;-71
2022/05/15 05:50:03;;;;;;;0.30;0.30;;;;;;;11.43;92.09;101434.97;5046968;28;20228;-70
2022/05/15 05:52:30;;;;;;;0.30;0.30;;;;;;;11.55;92.05;101432.16;5043487;28;20198;-70
2022/05/15 05:54:56;;;;;;;0.10;0.10;;;;;;;11.58;87.48;101449.53;5043712;28;20202;-70
2022/05/15 05:57:23;;;;;;;0.60;0.50;;;;;;;11.65;86.26;101451.16;5046494;28;20207;-71
2022/05/15 05:59:51;;;;;;;0.40;0.40;;;;;;;11.81;84.34;101456.97;5035126;28;20716;-70
2022/05/15 06:02:17;;;;;;;0.23;0.23;;;;;;;11.92;83.00;101453.31;5040993;28;20254;-71
2022/05/15 06:04:44;;;;;;;0.57;0.57;;;;;;;12.04;81.91;101465.25;5044448;28;20207;-71
2022/05/15 06:07:13;;;;;;;0.40;0.40;;;;;;;12.17;82.51;101465.91;5044057;28;20195;-71
2022/05/15 06:09:42;;;;;;;0.47;0.47;;;;;;;12.36;80.71;101468.16;5048916;28;20222;-70
2022/05/15 06:12:10;;;;;;;0.30;0.30;;;;;;;12.44;79.75;101471.47;5045919;28;20199;-71
2022/05/15 06:14:36;;;;;;;0.40;0.40;;;;;;;12.51;78.61;101470.47;5048428;28;20203;-71
2022/05/15 06:17:05;;;;;;;0.23;0.23;;;;;;;12.56;76.10;101472.97;5049064;28;20271;-71
2022/05/15 06:19:33;;;;;;;0.40;0.40;;;;;;;12.54;76.33;101475.63;5041748;28;20306;-70
2022/05/15 06:22:00;;;;;;;0.10;0.10;;;;;;;12.61;76.64;101479.84;5045667;28;20227;-70
2022/05/15 06:24:26;;;;;;;0.20;0.20;;;;;;;12.77;76.42;101482.09;5047191;28;20557;-70
2022/05/15 06:26:53;;;;;;;0.70;0.70;;;;;;;12.80;75.38;101488.13;5042415;28;20208;-71
2022/05/15 06:29:19;;;;;;;0.20;0.20;;;;;;;12.86;75.55;101482.78;5048080;28;20235;-71
2022/05/15 06:31:46;;;;;;;0.17;0.10;;;;;;;12.90;73.09;101483.56;5046363;28;20578;-70
2022/05/15 06:34:14;;;;;;;0.27;0.23;;;;;;;12.98;73.31;101492.13;5047276;28;20226;-71
2022/05/15 06:36:41;;;;;;;0.30;0.30;;;;;;;13.01;73.37;101494.66;5043668;28;20257;-69
2022/05/15 06:39:07;;;;;;;0.20;0.20;;;;;;;13.11;75.78;101484.84;5049020;28;20226;-71
2022/05/15 06:41:34;;;;;;;0.27;0.10;;;;;;;13.23;79.12;101478.47;5043693;28;20223;-70
2022/05/15 06:44:01;;;;;;;0.00;0.00;;;;;;;13.38;73.38;101485.97;5047101;28;20605;-70
2022/05/15 06:46:27;;;;;;;0.30;0.30;;;;;;;13.43;71.73;101485.88;5038204;28;20200;-71
2022/05/15 06:48:54;;;;;;;0.47;0.40;;;;;;;13.47;72.02;101494.50;5044720;28;20215;-69
2022/05/15 06:51:22;;;;;;;0.30;0.30;;;;;;;13.54;69.86;101490.84;5045349;28;20191;-69
2022/05/15 06:53:49;;;;;;;0.97;0.50;;;;;;;13.51;68.68;101488.28;5048815;28;20213;-71
2022/05/15 06:59:02;;;;;;;0.07;0.07;;;;;;;13.60;67.83;101495.94;5042555;28;20684;-71
2022/05/15 07:01:29;;;;;;;0.20;0.20;;;;;;;13.70;68.51;101486.97;5041204;28;20281;-71
2022/05/15 07:03:56;;;;;;;0.03;0.03;;;;;;;13.79;67.19;101491.97;5044807;28;20209;-71
2022/05/15 07:06:24;;;;;;;0.87;0.30;;;;;;;13.83;66.93;101498.84;5044138;28;20233;-71
2022/05/15 07:08:50;;;;;;;0.10;0.10;;;;;;;13.87;68.14;101497.00;5047290;28;20294;-70
2022/05/15 07:11:17;;;;;;;0.30;0.13;;;;;;;14.03;67.77;101497.44;5053226;28;20271;-69
2022/05/15 07:13:43;;;;;;;0.30;0.10;;;;;;;14.13;67.44;101495.44;5048728;28;20200;-71
2022/05/15 07:16:11;;;;;;;0.20;0.20;;;;;;;14.26;67.21;101494.19;5048953;28;20280;-71
2022/05/15 07:18:38;;;;;;;0.07;0.07;;;;;;;14.27;66.51;101492.47;5038312;28;20221;-70
2022/05/15 07:21:05;;;;;;;2.67;0.20;;;;;;;14.41;68.36;101482.44;5048156;28;20228;-71
2022/05/15 07:23:33;;;;;;;0.13;0.13;;;;;;;14.55;69.27;101484.66;5040244;28;20199;-69
2022/05/15 07:26:00;;;;;;;0.10;0.10;;;;;;;14.63;67.75;101485.31;5039862;28;20184;-71
2022/05/15 07:28:27;;;;;;;0.10;0.10;;;;;;;14.74;67.22;101480.63;5042797;28;20199;-71
2022/05/15 07:30:53;;;;;;;0.00;0.00;;;;;;;14.87;66.93;101481.09;5045511;28;20484;-71
2022/05/15 07:33:20;;;;;;;0.10;0.10;;;;;;;14.87;66.78;101481.09;5039987;28;20243;-69
2022/05/15 07:35:47;;;;;;;0.20;0.20;;;;;;;15.00;66.67;101480.72;5049900;28;20630;-71
2022/05/15 07:38:13;;;;;;;0.30;0.30;;;;;;;15.06;64.75;101486.66;5044836;28;20209;-71
2022/05/15 07:40:41;;;;;;;0.10;0.10;;;;;;;15.13;66.31;101479.44;5052285;28;20219;-71
2022/05/15 07:43:09;;;;;;;0.20;0.20;;;;;;;15.18;61.77;101488.03;5052902;28;20622;-71
2022/05/15 07:45:35;;;;;;;0.10;0.10;;;;;;;15.39;61.56;101481.22;5051920;28;20841;-71
2022/05/15 07:48:02;;;;;;;0.30;0.30;;;;;;;15.56;61.91;101487.69;5049122;28;20195;-71
2022/05/15 07:50:29;;;;;;;0.20;0.20;;;;;;;15.58;62.41;101484.09;5048936;28;20243;-70
2022/05/15 07:52:58;;;;;;;0.00;0.00;;;;;;;15.70;61.23;101486.31;5041090;28;20196;-71
2022/05/15 07:55:29;;;;;;;0.10;0.10;;;;;;;15.72;60.19;101488.88;5044453;28;20208;-71
2022/05/15 07:58:03;;;;;;;0.10;0.10;;;;;;;15.74;60.59;101473.06;5037901;28;20204;-71
2022/05/15 08:00:32;;;;;;;0.17;0.17;;;;;;;15.91;62.28;101483.91;5046673;28;20598;-71
2022/05/15 08:03:16;;;;;;;0.00;0.00;;;;;;;15.89;62.43;101473.44;5039673;28;20209;-70
2022/05/15 08:08:41;;;;;;;0.00;0.00;;;;;;;15.83;60.87;101476.28;5040491;28;20662;-70
2022/05/15 08:11:08;;;;;;;0.00;0.00;;;;;;;16.01;61.25;101482.66;5046596;28;20697;-71
2022/05/15 08:13:37;;;;;;;0.00;0.00;;;;;;;16.18;58.62;101487.34;5045434;28;20203;-71
2022/05/15 08:16:19;;;;;;;0.10;0.10;;;;;;;16.29;59.56;101484.31;5045074;28;20213;-71
2022/05/15 08:24:34;;;;;;;0.10;0.10;;;;;;;16.53;57.43;101484.31;5049719;28;20525;-71
2022/05/15 08:27:27;;;;;;;0.10;0.10;;;;;;;16.46;59.38;101486.31;5063472;28;20249;-70
2022/05/15 08:30:20;;;;;;;0.00;0.00;;;;;;;16.46;59.37;101481.94;5043220;28;20249;-70
2022/05/15 08:33:05;;;;;;;0.10;0.10;;;;;;;16.63;59.65;101483.06;5048052;28;20224;-71
2022/05/15 08:35:56;;;;;;;0.43;0.30;;;;;;;16.68;55.81;101486.38;5044886;28;20241;-70
2022/05/15 08:38:33;;;;;;;0.57;0.53;;;;;;;16.72;56.91;101489.75;5043068;28;20225;-71
2022/05/15 08:41:17;;;;;;;0.17;0.17;;;;;;;16.83;56.24;101487.53;5042440;28;20282;-71
2022/05/15 08:43:59;;;;;;;0.10;0.10;;;;;;;16.74;52.47;101488.75;5046024;28;20298;-71
2022/05/15 08:46:44;;;;;;;0.00;0.00;;;;;;;16.72;51.55;101489.75;5050600;28;20222;-71
2022/05/15 08:49:33;;;;;;;0.30;0.30;;;;;;;16.96;54.94;101485.34;5051343;28;20219;-71
2022/05/15 08:52:18;;;;;;;0.27;0.27;;;;;;;17.35;54.16;101488.16;5045430;28;20187;-71
2022/05/15 08:54:55;;;;;;;0.97;0.50;;;;;;;17.30;53.82;101484.00;5045468;28;20582;-71
2022/05/15 08:57:30;;;;;;;0.10;0.10;;;;;;;17.10;53.03;101490.94;5043869;28;20196;-71
2022/05/15 08:59:58;;;;;;;0.20;0.20;;;;;;;16.80;50.01;101492.97;5044781;28;20238;-69
2022/05/15 09:02:27;;;;;;;0.10;0.10;;;;;;;17.01;51.26;101489.50;5041313;28;20220;-69
2022/05/15 09:04:54;;;;;;;0.10;0.10;;;;;;;17.15;51.08;101486.34;5039647;28;20187;-69
2022/05/15 09:07:36;;;;;;;0.10;0.10;;;;;;;17.17;50.41;101484.50;5041845;28;20413;-69
2022/05/15 09:10:17;;;;;;;0.20;0.20;;;;;;;17.38;50.91;101495.09;5039504;28;20222;-72
2022/05/15 09:12:53;;;;;;;0.00;0.00;;;;;;;17.41;49.99;101497.56;5048196;28;20244;-71
2022/05/15 09:15:33;;;;;;;0.20;0.20;;;;;;;17.41;49.99;101495.81;5047470;28;20227;-70
2022/05/15 09:18:09;;;;;;;0.10;0.10;;;;;;;17.44;48.91;101497.47;5043764;28;20214;-70
2022/05/15 09:21:06;;;;;;;0.10;0.10;;;;;;;17.52;49.16;101498.00;5046900;28;20279;-70
2022/05/15 09:23:44;;;;;;;0.10;0.10;;;;;;;17.69;51.70;101488.53;5052026;28;20199;-71
2022/05/15 09:26:19;;;;;;;0.27;0.27;;;;;;;17.57;49.10;101493.41;5044722;28;20214;-71
2022/05/15 09:28:52;;;;;;;0.00;0.00;;;;;;;17.68;48.71;101492.09;5045192;28;20204;-70
2022/05/15 09:31:28;;;;;;;0.20;0.10;;;;;;;17.76;47.96;101492.63;5039288;28;20199;-70
2022/05/15 09:34:00;;;;;;;0.37;0.30;;;;;;;17.67;48.54;101479.84;5032460;28;20203;-70
2022/05/15 09:36:29;;;;;;;0.00;0.00;;;;;;;17.73;47.25;101490.97;5033567;28;20211;-70
2022/05/15 09:39:14;;;;;;;0.10;0.10;;;;;;;17.73;47.51;101487.47;5034360;28;20269;-70
2022/05/15 09:44:58;;;;;;;0.10;0.10;;;;;;;17.81;48.29;101481.88;5043392;28;20210;-70
2022/05/15 09:48:05;;;;;;;0.00;0.00;;;;;;;17.83;47.33;101469.47;5038103;28;20219;-70
2022/05/15 09:50:55;;;;;;;0.00;0.00;;;;;;;17.89;48.07;101467.47;5035779;28;20229;-70
2022/05/15 09:56:34;;;;;;;0.10;0.10;;;;;;;17.98;46.71;101482.03;5029199;28;20228;-70
2022/05/15 09:59:09;;;;;;;1.03;0.33;;;;;;;18.01;47.60;101471.38;5034303;28;20570;-70
2022/05/15 10:01:38;;;;;;;0.17;0.17;;;;;;;18.11;48.45;101466.53;5035425;28;20199;-70
2022/05/15 10:04:18;;;;;;;0.17;0.17;;;;;;;18.12;47.42;101468.25;5028398;28;20200;-70
2022/05/15 10:06:53;;;;;;;0.00;0.00;;;;;;;18.22;47.50;101456.34;5037462;28;20417;-70
2022/05/15 10:09:26;;;;;;;0.20;0.20;;;;;;;18.40;47.63;101459.06;5035727;28;20222;-70
2022/05/15 10:11:58;;;;;;;0.00;0.00;;;;;;;18.49;48.81;101454.22;5038733;28;20207;-70
2022/05/15 10:14:29;;;;;;;0.00;0.00;;;;;;;18.53;48.78;101460.22;5038712;28;20203;-70
2022/05/15 10:16:58;;;;;;;0.17;0.17;;;;;;;18.45;46.32;101457.94;5038869;28;20605;-70
2022/05/15 10:19:38;;;;;;;0.13;0.13;;;;;;;18.51;45.93;101456.81;5040420;28;20265;-70
2022/05/15 10:22:21;;;;;;;0.20;0.10;;;;;;;18.53;46.53;101449.66;5029437;28;20290;-70
2022/05/15 10:24:48;;;;;;;0.10;0.10;;;;;;;18.46;46.03;101461.44;5039593;28;20199;-70
2022/05/15 10:27:22;;;;;;;0.00;0.00;;;;;;;18.49;45.82;101458.66;5031776;28;20196;-70
2022/05/15 10:29:53;;;;;;;0.10;0.10;;;;;;;18.54;45.61;101456.66;5039859;28;20745;-70
2022/05/15 10:32:27;;;;;;;0.30;0.20;;;;;;;18.74;46.73;101446.00;5029335;28;20322;-70
2022/05/15 10:34:54;;;;;;;0.40;0.40;;;;;;;18.91;45.68;101444.41;5030771;28;20199;-70
2022/05/15 10:37:52;;;;;;;0.50;0.17;;;;;;;19.06;45.64;101434.84;5033738;28;20282;-70
2022/05/15 10:40:27;;;;;;;0.00;0.00;;;;;;;18.98;43.87;101434.38;5032931;28;20223;-70
2022/05/15 10:43:04;;;;;;;0.20;0.20;;;;;;;19.05;46.00;101433.13;5041334;28;20218;-70
2022/05/15 10:45:36;;;;;;;0.17;0.17;;;;;;;18.99;46.05;101422.88;5037593;28;20192;-70
2022/05/15 10:48:15;;;;;;;0.10;0.10;;;;;;;19.08;46.31;101419.78;5035137;28;20204;-70
2022/05/15 10:50:51;;;;;;;0.20;0.10;;;;;;;19.30;47.66;101420.44;5029165;28;20215;-70
2022/05/15 10:59:22;;;;;;;0.30;0.30;;;;;;;19.74;45.65;101413.00;5033867;28;20654;-70
2022/05/15 11:01:57;;;;;;;0.07;0.07;;;;;;;19.88;45.15;101410.47;5035440;28;20210;-70
2022/05/15 11:04:38;;;;;;;0.40;0.20;;;;;;;19.94;45.11;101415.41;5041428;28;20665;-70
2022/05/15 11:07:13;;;;;;;0.17;0.17;;;;;;;19.95;44.27;101408.34;5033771;28;20204;-70
2022/05/15 11:09:48;;;;;;;0.07;0.07;;;;;;;19.84;42.74;101407.13;5034086;28;20574;-70
2022/05/15 11:12:23;;;;;;;0.17;0.17;;;;;;;19.86;42.76;101401.75;5039630;28;20768;-70
2022/05/15 11:15:03;;;;;;;0.73;0.20;;;;;;;20.04;42.32;101395.47;5039532;28;20217;-70
2022/05/15 11:17:36;;;;;;;0.37;0.37;;;;;;;20.15;44.17;101399.34;5030229;28;20214;-70
2022/05/15 11:20:09;;;;;;;0.10;0.10;;;;;;;19.96;41.70;101389.72;5036154;28;20269;-70
2022/05/15 11:22:41;;;;;;;0.30;0.30;;;;;;;20.04;41.15;101395.47;5036814;28;20234;-70
2022/05/15 11:25:17;;;;;;;0.20;0.17;;;;;;;20.18;43.19;101389.44;5030683;28;20207;-70
2022/05/15 11:27:48;;;;;;;0.70;0.20;;;;;;;20.13;42.77;101382.69;5033473;28;20199;-70
2022/05/15 11:30:21;;;;;;;0.07;0.07;;;;;;;20.31;43.49;101386.13;5038264;28;20210;-70
2022/05/15 11:33:09;;;;;;;0.30;0.20;;;;;;;20.31;43.09;101381.66;5037371;28;20195;-70
2022/05/15 11:35:39;;;;;;;0.10;0.10;;;;;;;20.41;41.66;101380.22;5030303;28;20207;-70
2022/05/15 11:38:10;;;;;;;0.27;0.00;;;;;;;20.51;41.97;101380.56;5037004;28;20203;-70
2022/05/15 11:40:41;;;;;;;0.07;0.07;;;;;;;20.42;42.49;101375.75;5032906;28;20224;-70
2022/05/15 11:44:01;;;;;;;0.33;0.13;;;;;;;20.65;41.25;101384.25;5032170;28;20764;-70
2022/05/15 11:46:59;;;;;;;0.00;0.00;;;;;;;20.83;42.13;101377.94;4976721;28;20194;-70
2022/05/15 11:49:31;;;;;;;0.10;0.10;;;;;;;20.76;38.90;101373.91;4934279;28;20255;-70
2022/05/15 11:52:16;;;;;;;0.10;0.10;;;;;;;20.74;41.18;101363.41;5022976;28;20215;-70
2022/05/15 11:54:46;;;;;;;0.00;0.00;;;;;;;20.82;41.96;101364.75;5037330;28;20195;-70
2022/05/15 11:57:34;;;;;;;0.47;0.40;;;;;;;20.82;37.46;101367.41;5030744;28;20744;-70
2022/05/15 12:00:04;;;;;;;0.00;0.00;;;;;;;20.70;36.27;101371.59;5035626;28;20230;-70
2022/05/15 12:02:47;;;;;;;0.00;0.00;;;;;;;20.46;37.12;101365.88;5034463;28;20200;-70
2022/05/15 12:05:26;;;;;;;0.20;0.20;;;;;;;20.56;37.66;101367.06;5035491;28;20199;-70
2022/05/15 12:07:55;;;;;;;0.03;0.03;;;;;;;20.66;37.24;101362.13;5029529;28;20218;-70
2022/05/15 12:10:53;;;;;;;0.30;0.30;;;;;;;20.66;36.66;101359.47;5033528;28;20226;-70
2022/05/15 12:13:34;;;;;;;0.10;0.10;;;;;;;20.55;37.10;101357.41;5034501;28;20235;-70
2022/05/15 12:16:25;;;;;;;0.10;0.10;;;;;;;20.84;39.63;101344.31;5033888;28;20213;-70
2022/05/15 12:19:01;;;;;;;0.20;0.10;;;;;;;21.14;39.66;101349.63;5035871;28;20212;-70
2022/05/15 12:21:36;;;;;;;0.00;0.00;;;;;;;21.37;39.06;101350.88;5037656;28;20569;-70
2022/05/15 12:26:56;;;;;;;0.00;0.00;;;;;;;21.36;39.49;101338.59;5034832;28;20203;-70